createdAt,value
2022-12-03T00:01:48.675Z,64.47
2022-12-03T00:04:15.165Z,64.64
2022-12-03T00:06:41.772Z,64.46
2022-12-03T00:09:08.383Z,64.20
2022-12-03T00:11:34.903Z,64.68
2022-12-03T00:14:01.408Z,64.93
2022-12-03T00:16:28.107Z,65.61
2022-12-03T00:18:54.852Z,67.17
2022-12-03T00:21:22.861Z,68.67
2022-12-03T00:23:51.197Z,68.04
2022-12-03T00:26:17.773Z,66.92
2022-12-03T00:28:44.272Z,67.26
2022-12-03T00:31:10.951Z,67.34
2022-12-03T00:33:37.624Z,67.72
2022-12-03T00:36:04.346Z,68.31
2022-12-03T00:38:30.808Z,66.20
2022-12-03T00:40:57.329Z,65.36
2022-12-03T00:43:23.926Z,64.28
2022-12-03T00:45:50.520Z,63.76
2022-12-03T00:48:17.257Z,64.70
2022-12-03T00:50:43.999Z,65.72
2022-12-03T00:53:10.531Z,66.27
2022-12-03T00:55:37.159Z,65.86
2022-12-03T00:58:03.793Z,65.20
2022-12-03T01:00:30.300Z,65.11
2022-12-03T01:02:56.875Z,64.97
2022-12-03T01:05:23.467Z,63.98
2022-12-03T01:07:50.389Z,63.74
2022-12-03T01:10:17.294Z,63.94
2022-12-03T01:12:44.217Z,63.78
2022-12-03T01:15:10.762Z,63.35
2022-12-03T01:17:37.705Z,62.86
2022-12-03T01:20:04.926Z,62.80
2022-12-03T01:22:31.711Z,62.19
2022-12-03T01:24:58.217Z,62.51
2022-12-03T01:27:24.786Z,62.33
2022-12-03T01:29:51.459Z,62.07
2022-12-03T01:32:18.794Z,61.48
2022-12-03T01:34:47.184Z,61.23
2022-12-03T01:37:14.365Z,61.64
2022-12-03T01:39:41.379Z,62.05
2022-12-03T01:42:11.777Z,62.63
2022-12-03T01:44:39.157Z,62.56
2022-12-03T01:47:07.049Z,62.71
2022-12-03T01:49:42.631Z,62.96
2022-12-03T01:52:13.582Z,63.17
2022-12-03T01:54:41.789Z,62.53
2022-12-03T01:57:37.869Z,64.02
2022-12-03T02:00:05.120Z,67.58
2022-12-03T02:02:32.478Z,68.74
2022-12-03T02:05:00.545Z,68.70
2022-12-03T02:07:29.061Z,67.77
2022-12-03T02:09:57.712Z,67.11
2022-12-03T02:12:27.587Z,66.74
2022-12-03T02:14:55.006Z,66.93
2022-12-03T02:17:22.265Z,66.31
2022-12-03T02:19:49.217Z,65.62
2022-12-03T02:22:21.581Z,66.76
2022-12-03T02:24:48.181Z,67.40
2022-12-03T02:27:14.961Z,66.85
2022-12-03T02:29:41.870Z,66.61
2022-12-03T02:32:08.501Z,65.88
2022-12-03T02:34:36.504Z,65.12
2022-12-03T02:37:04.158Z,65.14
2022-12-03T02:39:32.296Z,64.95
2022-12-03T02:42:17.602Z,64.25
2022-12-03T02:44:44.320Z,63.87
2022-12-03T02:47:10.996Z,64.20
2022-12-03T02:49:37.955Z,63.96
2022-12-03T02:52:04.446Z,63.50
2022-12-03T02:54:31.164Z,62.82
2022-12-03T02:56:57.808Z,64.07
2022-12-03T02:59:24.548Z,65.18
2022-12-03T03:01:51.185Z,65.56
2022-12-03T03:04:18.031Z,65.01
2022-12-03T03:06:44.989Z,64.39
2022-12-03T03:09:11.677Z,64.22
2022-12-03T03:11:38.346Z,64.24
2022-12-03T03:14:04.889Z,63.91
2022-12-03T03:16:32.773Z,63.86
2022-12-03T03:18:59.839Z,64.38
2022-12-03T03:21:26.366Z,64.07
2022-12-03T03:23:53.190Z,64.83
2022-12-03T03:26:19.786Z,65.40
2022-12-03T03:28:50.500Z,65.56
2022-12-03T03:31:20.281Z,66.37
2022-12-03T03:33:47.607Z,66.34
2022-12-03T03:36:14.966Z,65.16
2022-12-03T03:38:41.862Z,64.97
2022-12-03T03:41:09.975Z,63.90
2022-12-03T03:43:38.215Z,63.87
2022-12-03T03:46:05.996Z,63.71
2022-12-03T03:48:33.953Z,63.80
2022-12-03T03:51:02.982Z,63.99
2022-12-03T03:53:30.022Z,63.91
2022-12-03T03:55:56.651Z,63.77
2022-12-03T03:58:23.393Z,63.77
2022-12-03T04:00:51.000Z,63.77
2022-12-03T04:03:17.741Z,63.37
2022-12-03T04:05:44.531Z,63.01
2022-12-03T04:08:11.143Z,62.94
2022-12-03T04:10:56.730Z,63.06
2022-12-03T04:13:23.213Z,62.91
2022-12-03T04:15:49.815Z,63.05
2022-12-03T04:18:34.820Z,63.93
2022-12-03T04:21:20.048Z,64.17
2022-12-03T04:23:46.689Z,64.51
2022-12-03T04:26:32.138Z,64.58
2022-12-03T04:28:58.903Z,64.02
2022-12-03T04:31:44.384Z,63.67
2022-12-03T04:34:29.617Z,63.51
2022-12-03T04:36:56.258Z,63.45
2022-12-03T04:39:22.859Z,63.35
2022-12-03T04:41:49.465Z,63.66
2022-12-03T04:44:34.483Z,63.60
2022-12-03T04:47:20.717Z,63.64
2022-12-03T04:49:51.008Z,63.52
2022-12-03T04:52:19.021Z,63.79
2022-12-03T04:54:45.521Z,64.42
2022-12-03T04:57:12.707Z,64.77
2022-12-03T04:59:39.378Z,64.20
2022-12-03T05:02:06.609Z,64.18
2022-12-03T05:04:33.805Z,64.49
2022-12-03T05:07:00.340Z,64.50
2022-12-03T05:09:27.115Z,64.83
2022-12-03T05:11:53.677Z,64.88
2022-12-03T05:14:21.247Z,65.31
2022-12-03T05:16:48.124Z,65.84
2022-12-03T05:19:15.105Z,66.19
2022-12-03T05:21:41.731Z,65.65
2022-12-03T05:24:08.369Z,65.78
2022-12-03T05:26:34.900Z,65.59
2022-12-03T05:29:01.663Z,66.01
2022-12-03T05:31:28.287Z,65.97
2022-12-03T05:33:55.263Z,65.82
2022-12-03T05:36:22.063Z,66.66
2022-12-03T05:38:48.757Z,66.76
2022-12-03T05:41:34.099Z,66.53
2022-12-03T05:44:00.612Z,65.06
2022-12-03T05:46:27.140Z,64.85
2022-12-03T05:48:55.115Z,65.81
2022-12-03T05:51:22.198Z,64.87
2022-12-03T05:53:48.718Z,64.32
2022-12-03T05:56:15.226Z,64.50
2022-12-03T05:58:42.005Z,65.09
2022-12-03T06:01:08.509Z,66.01
2022-12-03T06:03:35.402Z,66.03
2022-12-03T06:06:02.068Z,64.83
2022-12-03T06:08:28.706Z,64.19
2022-12-03T06:10:55.364Z,64.89
2022-12-03T06:13:22.325Z,66.45
2022-12-03T06:15:48.874Z,66.78
2022-12-03T06:18:15.555Z,67.07
2022-12-03T06:20:42.321Z,65.50
2022-12-03T06:23:08.939Z,64.40
2022-12-03T06:25:35.661Z,64.07
2022-12-03T06:28:02.546Z,63.36
2022-12-03T06:30:29.180Z,62.12
2022-12-03T06:32:57.588Z,61.64
2022-12-03T06:35:24.202Z,61.03
2022-12-03T06:37:50.905Z,60.44
2022-12-03T06:40:18.288Z,60.54
2022-12-03T06:42:44.770Z,60.65
2022-12-03T06:45:11.546Z,61.33
2022-12-03T06:47:38.294Z,63.01
2022-12-03T06:50:05.842Z,65.71
2022-12-03T06:52:32.318Z,66.01
2022-12-03T06:54:59.525Z,65.10
2022-12-03T06:57:26.131Z,64.40
2022-12-03T06:59:52.858Z,63.83
2022-12-03T07:02:19.603Z,62.75
2022-12-03T07:04:46.683Z,62.46
2022-12-03T07:07:13.631Z,62.36
2022-12-03T07:09:40.350Z,62.26
2022-12-03T07:12:06.889Z,61.76
2022-12-03T07:14:33.383Z,61.45
2022-12-03T07:17:00.151Z,61.55
2022-12-03T07:19:32.334Z,61.43
2022-12-03T07:22:00.128Z,61.10
2022-12-03T07:24:26.928Z,61.06
2022-12-03T07:26:53.840Z,61.73
2022-12-03T07:29:20.531Z,62.06
2022-12-03T07:31:47.230Z,62.19
2022-12-03T07:34:14.031Z,62.46
2022-12-03T07:36:40.746Z,62.80
2022-12-03T07:39:07.259Z,62.45
2022-12-03T07:41:34.010Z,62.40
2022-12-03T07:44:00.541Z,62.22
2022-12-03T07:46:27.349Z,61.99
2022-12-03T07:48:54.024Z,61.78
2022-12-03T07:51:20.842Z,62.09
2022-12-03T07:53:47.506Z,62.46
2022-12-03T07:56:14.116Z,62.37
2022-12-03T07:58:40.683Z,62.58
2022-12-03T08:01:07.334Z,62.50
2022-12-03T08:03:34.187Z,62.20
2022-12-03T08:06:00.722Z,61.87
2022-12-03T08:08:27.243Z,62.17
2022-12-03T08:10:53.871Z,61.89
2022-12-03T08:13:20.327Z,61.63
2022-12-03T08:15:46.839Z,61.88
2022-12-03T08:18:17.926Z,62.26
2022-12-03T08:20:45.554Z,62.24
2022-12-03T08:23:13.882Z,62.43
2022-12-03T08:25:41.376Z,62.96
2022-12-03T08:28:12.508Z,63.89
2022-12-03T08:30:39.828Z,64.35
2022-12-03T08:33:14.894Z,65.15
2022-12-03T08:35:43.888Z,65.23
2022-12-03T08:38:11.557Z,65.25
2022-12-03T08:40:42.999Z,65.70
2022-12-03T08:43:20.747Z,65.66
2022-12-03T08:45:49.292Z,65.18
2022-12-03T08:48:22.080Z,66.06
2022-12-03T08:50:48.909Z,66.24
2022-12-03T08:53:34.216Z,66.67
2022-12-03T08:56:02.826Z,67.18
2022-12-03T08:58:29.375Z,67.50
2022-12-03T09:01:15.868Z,67.97
2022-12-03T09:03:53.902Z,67.79
2022-12-03T09:06:21.018Z,67.65
2022-12-03T09:08:47.894Z,66.92
2022-12-03T09:11:14.628Z,66.79
2022-12-03T09:13:41.323Z,66.22
2022-12-03T09:16:07.973Z,65.91
2022-12-03T09:18:34.577Z,65.68
2022-12-03T09:21:01.172Z,65.35
2022-12-03T09:23:27.774Z,65.61
2022-12-03T09:25:54.527Z,66.43
2022-12-03T09:28:21.158Z,66.21
2022-12-03T09:30:47.924Z,65.83
2022-12-03T09:33:14.700Z,66.29
2022-12-03T09:35:41.515Z,66.73
2022-12-03T09:38:08.251Z,67.01
2022-12-03T09:40:34.817Z,67.77
2022-12-03T09:43:03.617Z,67.97
2022-12-03T09:45:30.205Z,67.61
2022-12-03T09:47:56.984Z,68.04
2022-12-03T09:50:25.834Z,67.87
2022-12-03T09:52:56.483Z,68.34
2022-12-03T09:55:24.789Z,68.63
2022-12-03T09:57:55.065Z,68.09
2022-12-03T10:00:22.783Z,67.80
2022-12-03T10:02:50.801Z,67.59
2022-12-03T10:05:18.759Z,67.55
2022-12-03T10:07:45.789Z,67.26
2022-12-03T10:10:17.513Z,67.38
2022-12-03T10:12:44.717Z,67.44
2022-12-03T10:15:13.290Z,67.83
2022-12-03T10:17:40.463Z,68.03
2022-12-03T10:20:10.694Z,67.91
2022-12-03T10:22:37.206Z,67.36
2022-12-03T10:25:08.797Z,66.90
2022-12-03T10:27:35.772Z,66.91
2022-12-03T10:30:04.983Z,66.37
2022-12-03T10:32:45.353Z,66.03
2022-12-03T10:35:19.915Z,66.63
2022-12-03T10:38:05.920Z,67.00
2022-12-03T10:40:33.933Z,67.03
2022-12-03T10:43:12.963Z,67.25
2022-12-03T10:45:39.842Z,67.98
2022-12-03T10:48:11.390Z,67.68
2022-12-03T10:50:45.218Z,67.05
2022-12-03T10:53:11.902Z,66.73
2022-12-03T10:55:39.871Z,66.85
2022-12-03T10:58:15.580Z,66.84
2022-12-03T11:00:42.117Z,66.78
2022-12-03T11:03:19.546Z,66.69
2022-12-03T11:05:46.921Z,66.85
2022-12-03T11:08:24.224Z,66.94
2022-12-03T11:11:01.778Z,66.80
2022-12-03T11:13:41.719Z,66.78
2022-12-03T11:16:08.329Z,67.15
2022-12-03T11:18:35.158Z,67.21
2022-12-03T11:21:12.385Z,67.05
2022-12-03T11:23:44.845Z,67.43
2022-12-03T11:26:18.965Z,67.59
2022-12-03T11:28:46.376Z,67.24
2022-12-03T11:31:31.671Z,66.90
2022-12-03T11:34:16.777Z,66.98
2022-12-03T11:37:02.253Z,66.65
2022-12-03T11:39:44.179Z,66.19
2022-12-03T11:42:26.072Z,65.93
2022-12-03T11:45:01.904Z,65.54
2022-12-03T11:47:36.512Z,64.99
2022-12-03T11:50:18.815Z,64.75
2022-12-03T11:52:47.807Z,64.91
2022-12-03T11:55:24.274Z,64.82
2022-12-03T11:57:56.585Z,64.55
2022-12-03T12:00:23.795Z,64.49
2022-12-03T12:02:51.376Z,64.62
2022-12-03T12:05:29.064Z,64.64
2022-12-03T12:07:56.251Z,64.81
2022-12-03T12:10:40.036Z,64.58
2022-12-03T12:13:13.994Z,64.51
2022-12-03T12:15:43.705Z,64.76
2022-12-03T12:18:29.136Z,65.07
2022-12-03T12:20:55.771Z,65.24
2022-12-03T12:23:28.378Z,65.06
2022-12-03T12:26:04.922Z,64.81
2022-12-03T12:28:31.450Z,64.82
2022-12-03T12:30:58.727Z,65.21
2022-12-03T12:33:26.156Z,65.14
2022-12-03T12:35:53.137Z,65.16
2022-12-03T12:38:22.085Z,64.75
2022-12-03T12:40:49.603Z,64.03
2022-12-03T12:43:24.724Z,63.88
2022-12-03T12:45:55.747Z,64.00
2022-12-03T12:48:24.078Z,63.66
2022-12-03T12:50:56.770Z,63.61
2022-12-03T12:53:24.147Z,64.00
2022-12-03T12:55:54.764Z,63.71
2022-12-03T12:58:21.852Z,63.46
2022-12-03T13:00:50.973Z,63.71
2022-12-03T13:03:19.590Z,64.18
2022-12-03T13:05:47.387Z,64.71
2022-12-03T13:08:27.145Z,64.90
2022-12-03T13:10:55.372Z,64.84
2022-12-03T13:13:22.564Z,64.97
2022-12-03T13:16:00.342Z,65.15
2022-12-03T13:18:26.907Z,65.48
2022-12-03T13:20:54.523Z,65.63
2022-12-03T13:23:30.777Z,66.04
2022-12-03T13:26:04.725Z,65.97
2022-12-03T13:28:41.209Z,65.82
2022-12-03T13:31:22.616Z,66.01
2022-12-03T13:33:50.047Z,66.21
2022-12-03T13:36:18.725Z,66.39
2022-12-03T13:38:46.035Z,66.73
2022-12-03T13:41:34.680Z,66.29
2022-12-03T13:44:02.203Z,65.93
2022-12-03T13:46:31.247Z,66.16
2022-12-03T13:49:01.637Z,66.47
2022-12-03T13:51:31.294Z,66.90
2022-12-03T13:53:58.995Z,66.90
2022-12-03T13:56:27.949Z,66.74
2022-12-03T13:58:55.370Z,66.44
2022-12-03T14:01:22.077Z,66.92
2022-12-03T14:03:49.037Z,67.44
2022-12-03T14:06:15.591Z,67.92
2022-12-03T14:08:42.384Z,68.59
2022-12-03T14:11:09.072Z,69.22
2022-12-03T14:13:35.524Z,69.59
2022-12-03T14:16:02.225Z,69.54
2022-12-03T14:18:29.583Z,69.87
2022-12-03T14:20:56.124Z,69.82
2022-12-03T14:23:22.657Z,69.85
2022-12-03T14:25:49.434Z,69.86
2022-12-03T14:28:15.932Z,69.40
2022-12-03T14:30:42.398Z,69.65
2022-12-03T14:33:08.929Z,69.46
2022-12-03T14:35:35.740Z,69.54
2022-12-03T14:38:02.850Z,69.74
2022-12-03T14:40:29.632Z,69.76
2022-12-03T14:42:56.122Z,69.48
2022-12-03T14:45:23.649Z,69.38
2022-12-03T14:47:50.272Z,69.38
2022-12-03T14:50:16.898Z,69.69
2022-12-03T14:52:43.452Z,69.92
2022-12-03T14:55:10.006Z,70.18
2022-12-03T14:57:36.785Z,70.82
2022-12-03T15:00:04.979Z,70.79
2022-12-03T15:02:31.854Z,70.86
2022-12-03T15:04:58.762Z,70.96
2022-12-03T15:07:25.429Z,71.36
2022-12-03T15:09:52.350Z,71.40
2022-12-03T15:12:19.287Z,71.44
2022-12-03T15:14:46.978Z,71.13
2022-12-03T15:17:13.711Z,70.82
2022-12-03T15:19:40.942Z,70.50
2022-12-03T15:22:07.472Z,70.42
2022-12-03T15:24:34.107Z,69.96
2022-12-03T15:27:00.908Z,69.68
2022-12-03T15:29:27.483Z,69.29
2022-12-03T15:31:54.209Z,68.78
2022-12-03T15:34:23.093Z,69.04
2022-12-03T15:36:50.612Z,68.77
2022-12-03T15:39:17.203Z,68.84
2022-12-03T15:41:43.803Z,69.01
2022-12-03T15:44:10.478Z,69.07
2022-12-03T15:46:37.269Z,68.74
2022-12-03T15:49:04.161Z,68.63
2022-12-03T15:51:30.773Z,68.77
2022-12-03T15:53:57.256Z,68.85
2022-12-03T15:56:24.139Z,68.88
2022-12-03T15:58:50.710Z,68.89
2022-12-03T16:01:17.507Z,69.09
2022-12-03T16:03:44.041Z,69.05
2022-12-03T16:06:10.583Z,68.79
2022-12-03T16:08:37.237Z,68.61
2022-12-03T16:11:05.126Z,68.59
2022-12-03T16:13:31.588Z,68.49
2022-12-03T16:15:58.357Z,68.19
2022-12-03T16:18:25.144Z,68.30
2022-12-03T16:20:51.879Z,68.29
2022-12-03T16:23:18.383Z,68.56
2022-12-03T16:25:45.139Z,69.04
2022-12-03T16:28:11.788Z,69.14
2022-12-03T16:30:38.882Z,68.92
2022-12-03T16:33:06.075Z,68.87
2022-12-03T16:35:32.614Z,68.70
2022-12-03T16:37:59.108Z,68.70
2022-12-03T16:40:26.035Z,68.75
2022-12-03T16:42:52.528Z,68.78
2022-12-03T16:45:32.714Z,68.35
2022-12-03T16:47:59.948Z,68.15
2022-12-03T16:50:29.847Z,68.60
2022-12-03T16:52:57.535Z,68.74
2022-12-03T16:55:24.161Z,69.08
2022-12-03T16:57:50.668Z,68.96
2022-12-03T17:00:17.722Z,68.60
2022-12-03T17:02:44.332Z,68.50
2022-12-03T17:05:11.224Z,68.01
2022-12-03T17:07:37.784Z,67.59
2022-12-03T17:10:05.499Z,67.86
2022-12-03T17:13:00.797Z,69.07
2022-12-03T17:15:18.867Z,68.79
2022-12-03T17:17:45.516Z,69.06
2022-12-03T17:20:14.058Z,69.86
2022-12-03T17:22:40.903Z,70.64
2022-12-03T17:25:07.840Z,70.30
2022-12-03T17:27:34.438Z,70.82
2022-12-03T17:30:01.312Z,70.45
2022-12-03T17:32:27.898Z,70.10
2022-12-03T17:34:54.717Z,69.50
2022-12-03T17:37:21.297Z,69.30
2022-12-03T17:39:47.871Z,69.06
2022-12-03T17:42:14.656Z,68.76
2022-12-03T17:44:41.244Z,68.39
2022-12-03T17:47:07.937Z,67.96
2022-12-03T17:49:34.517Z,67.82
2022-12-03T17:52:01.196Z,67.58
2022-12-03T17:54:43.269Z,67.69
2022-12-03T17:57:14.599Z,67.07
2022-12-03T17:59:41.215Z,66.72
2022-12-03T18:02:07.863Z,67.12
2022-12-03T18:04:34.447Z,67.56
2022-12-03T18:07:02.648Z,67.66
2022-12-03T18:09:29.346Z,67.85
2022-12-03T18:11:55.862Z,67.93
2022-12-03T18:14:22.494Z,68.17
2022-12-03T18:16:49.067Z,68.39
2022-12-03T18:19:15.703Z,68.48
2022-12-03T18:21:42.344Z,68.87
2022-12-03T18:24:09.288Z,68.57
2022-12-03T18:26:35.943Z,68.72
2022-12-03T18:29:02.563Z,68.65
2022-12-03T18:31:29.203Z,68.79
2022-12-03T18:33:56.099Z,69.01
2022-12-03T18:36:29.311Z,69.17
2022-12-03T18:38:57.478Z,69.18
2022-12-03T18:41:24.353Z,69.03
2022-12-03T18:43:51.411Z,68.93
2022-12-03T18:46:45.135Z,68.85
2022-12-03T18:49:05.394Z,69.09
2022-12-03T18:51:31.907Z,69.02
2022-12-03T18:53:58.462Z,69.23
2022-12-03T18:56:25.119Z,69.51
2022-12-03T18:58:51.657Z,70.03
2022-12-03T19:01:19.922Z,69.99
2022-12-03T19:03:46.824Z,69.93
2022-12-03T19:06:18.575Z,70.16
2022-12-03T19:08:46.285Z,69.84
2022-12-03T19:11:13.332Z,69.76
2022-12-03T19:13:40.479Z,69.44
2022-12-03T19:16:08.239Z,69.10
2022-12-03T19:18:35.082Z,69.03
2022-12-03T19:21:05.410Z,69.40
2022-12-03T19:23:32.329Z,69.38
2022-12-03T19:25:59.953Z,69.59
2022-12-03T19:28:27.632Z,69.56
2022-12-03T19:30:55.333Z,69.47
2022-12-03T19:33:28.089Z,69.52
2022-12-03T19:35:55.791Z,70.40
2022-12-03T19:38:23.353Z,70.79
2022-12-03T19:41:00.687Z,70.49
2022-12-03T19:43:27.256Z,70.33
2022-12-03T19:45:54.535Z,70.32
2022-12-03T19:48:22.476Z,70.27
2022-12-03T19:50:58.385Z,70.64
2022-12-03T19:53:37.330Z,70.62
2022-12-03T19:56:05.598Z,69.80
2022-12-03T19:58:32.615Z,70.03
2022-12-03T20:01:09.789Z,69.63
2022-12-03T20:03:40.088Z,69.84
2022-12-03T20:06:07.070Z,69.38
2022-12-03T20:08:37.451Z,69.30
2022-12-03T20:11:23.773Z,69.41
2022-12-03T20:13:57.864Z,69.61
2022-12-03T20:16:25.358Z,69.76
2022-12-03T20:18:55.489Z,69.38
2022-12-03T20:21:22.027Z,69.45
2022-12-03T20:23:48.915Z,69.40
2022-12-03T20:26:17.264Z,69.29
2022-12-03T20:28:44.417Z,68.88
2022-12-03T20:31:15.267Z,68.59
2022-12-03T20:33:43.076Z,68.23
2022-12-03T20:36:10.931Z,68.34
2022-12-03T20:38:37.844Z,68.04
2022-12-03T20:41:06.416Z,68.49
2022-12-03T20:43:33.616Z,68.36
2022-12-03T20:46:07.221Z,68.56
2022-12-03T20:48:34.125Z,68.95
2022-12-03T20:51:04.479Z,68.79
2022-12-03T20:53:31.290Z,69.09
2022-12-03T20:55:59.243Z,69.36
2022-12-03T20:58:25.762Z,69.70
2022-12-03T21:00:52.489Z,69.94
2022-12-03T21:03:19.096Z,70.00
2022-12-03T21:05:45.744Z,70.26
2022-12-03T21:08:12.423Z,70.49
2022-12-03T21:10:46.001Z,71.20
2022-12-03T21:13:16.418Z,71.63
2022-12-03T21:15:43.655Z,71.77
2022-12-03T21:18:11.577Z,71.89
2022-12-03T21:20:39.635Z,72.65
2022-12-03T21:23:06.317Z,72.96
2022-12-03T21:25:35.008Z,73.35
2022-12-03T21:28:02.612Z,73.57
2022-12-03T21:30:29.203Z,73.12
2022-12-03T21:32:56.043Z,73.43
2022-12-03T21:35:22.864Z,73.86
2022-12-03T21:37:49.688Z,73.44
2022-12-03T21:40:16.183Z,73.63
2022-12-03T21:42:42.760Z,74.24
2022-12-03T21:45:09.655Z,74.58
2022-12-03T21:47:37.504Z,74.52
2022-12-03T21:50:05.741Z,74.13
2022-12-03T21:52:32.991Z,73.95
2022-12-03T21:54:59.499Z,74.24
2022-12-03T21:57:26.080Z,74.38
2022-12-03T21:59:53.106Z,74.29
2022-12-03T22:02:20.280Z,74.96
2022-12-03T22:04:50.402Z,75.37
2022-12-03T22:07:17.103Z,76.16
2022-12-03T22:09:43.648Z,75.85
2022-12-03T22:12:10.483Z,75.64
2022-12-03T22:14:37.431Z,75.13
2022-12-03T22:17:03.966Z,75.13
2022-12-03T22:19:30.601Z,75.54
2022-12-03T22:21:57.139Z,75.21
2022-12-03T22:24:23.800Z,75.24
2022-12-03T22:26:52.968Z,75.61
2022-12-03T22:29:19.913Z,75.95
2022-12-03T22:31:46.433Z,75.70
2022-12-03T22:34:13.085Z,75.44
2022-12-03T22:36:39.856Z,74.84
2022-12-03T22:39:06.389Z,74.48
2022-12-03T22:41:33.058Z,74.35
2022-12-03T22:43:59.539Z,74.37
2022-12-03T22:46:26.179Z,74.05
2022-12-03T22:48:52.913Z,74.23
2022-12-03T22:51:20.930Z,74.06
2022-12-03T22:53:52.596Z,74.29
2022-12-03T22:56:19.193Z,74.16
2022-12-03T22:58:45.770Z,73.83
2022-12-03T23:01:19.734Z,74.01
2022-12-03T23:03:46.325Z,73.62
2022-12-03T23:06:13.082Z,72.66
2022-12-03T23:08:39.590Z,71.68
2022-12-03T23:11:06.321Z,71.20
2022-12-03T23:13:32.821Z,71.75
2022-12-03T23:15:59.635Z,73.82
2022-12-03T23:18:26.576Z,76.07
2022-12-03T23:20:54.234Z,75.10
2022-12-03T23:23:21.751Z,74.06
2022-12-03T23:26:01.347Z,73.00
2022-12-03T23:28:29.069Z,73.23
2022-12-03T23:30:55.945Z,75.81
2022-12-03T23:33:23.245Z,76.36
2022-12-03T23:35:50.267Z,75.58
2022-12-03T23:38:16.864Z,74.88
2022-12-03T23:40:48.074Z,75.28
2022-12-03T23:43:15.581Z,74.59
2022-12-03T23:45:42.413Z,75.07
2022-12-03T23:48:08.914Z,76.30
2022-12-03T23:50:37.938Z,75.87
2022-12-03T23:53:04.475Z,75.14
2022-12-03T23:55:31.064Z,74.83
2022-12-03T23:57:58.116Z,74.58
